KSBY/SBY METAR and TAF weather

Enter ICAO airport designator
Station Type Date Time Source
KSBY METAR 2021/10/22 19:54 UTC NOAA

KSBY 221954Z 27003KT 10SM OVC025 20/13 A2991 RMK AO2 SLP131 T02000133


Station Type Date Time Source
KSBY Decoded METAR 2021/10/22 19:54 UTC NOAA

SALISBURY-WICOMICO CTY REG, MD, United States (KSBY) 38-20N 075-30W 19M
Oct 22, 2021 - 03:54 PM EDT / 2021.10.22 1954 UTC
Wind: from the W (270 degrees) at 3 MPH (3 KT):0
Visibility: 10 mile(s):0
Sky conditions: overcast
Temperature: 68.0 F (20.0 C)
Dew Point: 55.9 F (13.3 C)
Relative Humidity: 65%
Pressure (altimeter): 29.91 in. Hg (1012 hPa)
ob: KSBY 221954Z 27003KT 10SM OVC025 20/13 A2991 RMK AO2 SLP131 T02000133
cycle: 20

Station Type Date Time Source
KSBY TAF 2021/10/22 20:06 UTC NOAA

TAF
AMD KSBY 222002Z 2220/2318 36005KT P6SM BKN025
FM222100 33006KT P6SM OVC050
FM222300 00000KT P6SM BKN060
FM230500 00000KT P6SM BKN100
FM231400 32006KT P6SM BKN060

Example: see airport list